sensor_id;sensor_type;location;lat;lon;timestamp;temperature;humidity
12655;DHT22;6392;44.644;11.448;2022-12-20T00:00:29;6.20;99.90
12655;DHT22;6392;44.644;11.448;2022-12-20T00:02:56;6.20;99.90
12655;DHT22;6392;44.644;11.448;2022-12-20T00:05:23;6.20;99.90
12655;DHT22;6392;44.644;11.448;2022-12-20T00:07:50;6.20;99.90
12655;DHT22;6392;44.644;11.448;2022-12-20T00:10:17;6.20;99.90
12655;DHT22;6392;44.644;11.448;2022-12-20T00:12:45;6.20;99.90
12655;DHT22;6392;44.644;11.448;2022-12-20T00:15:12;6.20;99.90
12655;DHT22;6392;44.644;11.448;2022-12-20T00:17:40;6.20;99.90
12655;DHT22;6392;44.644;11.448;2022-12-20T00:20:08;6.20;99.90
12655;DHT22;6392;44.644;11.448;2022-12-20T00:22:36;6.20;99.90
12655;DHT22;6392;44.644;11.448;2022-12-20T00:25:04;6.20;99.90
12655;DHT22;6392;44.644;11.448;2022-12-20T00:27:31;6.20;99.90
12655;DHT22;6392;44.644;11.448;2022-12-20T00:29:58;6.20;99.90
12655;DHT22;6392;44.644;11.448;2022-12-20T00:32:26;6.20;99.90
12655;DHT22;6392;44.644;11.448;2022-12-20T00:34:55;6.20;99.90
12655;DHT22;6392;44.644;11.448;2022-12-20T00:37:22;6.20;99.90
12655;DHT22;6392;44.644;11.448;2022-12-20T00:39:49;6.20;99.90
12655;DHT22;6392;44.644;11.448;2022-12-20T00:42:16;6.20;99.90
12655;DHT22;6392;44.644;11.448;2022-12-20T00:44:43;6.20;99.90
12655;DHT22;6392;44.644;11.448;2022-12-20T00:47:10;6.20;99.90
12655;DHT22;6392;44.644;11.448;2022-12-20T00:49:37;6.20;99.90
12655;DHT22;6392;44.644;11.448;2022-12-20T00:52:05;6.20;99.90
12655;DHT22;6392;44.644;11.448;2022-12-20T00:54:33;6.20;99.90
12655;DHT22;6392;44.644;11.448;2022-12-20T00:57:00;6.20;99.90
12655;DHT22;6392;44.644;11.448;2022-12-20T00:59:27;6.20;99.90
12655;DHT22;6392;44.644;11.448;2022-12-20T01:01:54;6.20;99.90
12655;DHT22;6392;44.644;11.448;2022-12-20T01:04:21;6.20;99.90
12655;DHT22;6392;44.644;11.448;2022-12-20T01:06:48;6.20;99.90
12655;DHT22;6392;44.644;11.448;2022-12-20T01:09:16;6.30;99.90
12655;DHT22;6392;44.644;11.448;2022-12-20T01:11:43;6.30;99.90
12655;DHT22;6392;44.644;11.448;2022-12-20T01:14:13;6.30;99.90
12655;DHT22;6392;44.644;11.448;2022-12-20T01:16:42;6.30;99.90
12655;DHT22;6392;44.644;11.448;2022-12-20T01:19:11;6.30;99.90
12655;DHT22;6392;44.644;11.448;2022-12-20T01:21:39;6.30;99.90
12655;DHT22;6392;44.644;11.448;2022-12-20T01:24:09;6.20;99.90
12655;DHT22;6392;44.644;11.448;2022-12-20T01:26:37;6.20;99.90
12655;DHT22;6392;44.644;11.448;2022-12-20T01:29:04;6.20;99.90
12655;DHT22;6392;44.644;11.448;2022-12-20T01:31:32;6.30;99.90
12655;DHT22;6392;44.644;11.448;2022-12-20T01:33:59;6.20;99.90
12655;DHT22;6392;44.644;11.448;2022-12-20T01:36:29;6.20;99.90
12655;DHT22;6392;44.644;11.448;2022-12-20T01:38:57;6.30;99.90
12655;DHT22;6392;44.644;11.448;2022-12-20T01:41:24;6.30;99.90
12655;DHT22;6392;44.644;11.448;2022-12-20T01:43:55;6.30;99.90
12655;DHT22;6392;44.644;11.448;2022-12-20T01:46:24;6.30;99.90
12655;DHT22;6392;44.644;11.448;2022-12-20T01:48:54;6.20;99.90
12655;DHT22;6392;44.644;11.448;2022-12-20T01:51:22;6.20;99.90
12655;DHT22;6392;44.644;11.448;2022-12-20T01:53:53;6.20;99.90
12655;DHT22;6392;44.644;11.448;2022-12-20T01:56:21;6.20;99.90
12655;DHT22;6392;44.644;11.448;2022-12-20T01:58:50;6.20;99.90
12655;DHT22;6392;44.644;11.448;2022-12-20T02:01:21;6.20;99.90
12655;DHT22;6392;44.644;11.448;2022-12-20T02:03:49;6.20;99.90
12655;DHT22;6392;44.644;11.448;2022-12-20T02:06:19;6.20;99.90
12655;DHT22;6392;44.644;11.448;2022-12-20T02:08:50;6.20;99.90
12655;DHT22;6392;44.644;11.448;2022-12-20T02:11:43;6.20;99.90
12655;DHT22;6392;44.644;11.448;2022-12-20T02:14:18;6.20;99.90
12655;DHT22;6392;44.644;11.448;2022-12-20T02:16:56;6.20;99.90
12655;DHT22;6392;44.644;11.448;2022-12-20T02:19:44;6.20;99.90
12655;DHT22;6392;44.644;11.448;2022-12-20T02:22:24;6.20;99.90
12655;DHT22;6392;44.644;11.448;2022-12-20T02:28:00;6.20;99.90
12655;DHT22;6392;44.644;11.448;2022-12-20T02:30:33;6.20;99.90
12655;DHT22;6392;44.644;11.448;2022-12-20T02:33:02;6.20;99.90
12655;DHT22;6392;44.644;11.448;2022-12-20T02:35:32;6.20;99.90
12655;DHT22;6392;44.644;11.448;2022-12-20T02:38:01;6.20;99.90
12655;DHT22;6392;44.644;11.448;2022-12-20T02:40:32;6.20;99.90
12655;DHT22;6392;44.644;11.448;2022-12-20T02:43:03;6.20;99.90
12655;DHT22;6392;44.644;11.448;2022-12-20T02:45:55;6.20;99.90
12655;DHT22;6392;44.644;11.448;2022-12-20T02:48:23;6.30;99.90
12655;DHT22;6392;44.644;11.448;2022-12-20T02:50:53;6.30;99.90
12655;DHT22;6392;44.644;11.448;2022-12-20T02:53:22;6.20;99.90
12655;DHT22;6392;44.644;11.448;2022-12-20T02:55:54;6.20;99.90
12655;DHT22;6392;44.644;11.448;2022-12-20T02:58:27;6.20;99.90
12655;DHT22;6392;44.644;11.448;2022-12-20T03:01:00;6.20;99.90
12655;DHT22;6392;44.644;11.448;2022-12-20T03:03:30;6.20;99.90
12655;DHT22;6392;44.644;11.448;2022-12-20T03:05:57;6.20;99.90
12655;DHT22;6392;44.644;11.448;2022-12-20T03:08:25;6.20;99.90
12655;DHT22;6392;44.644;11.448;2022-12-20T03:10:53;6.20;99.90
12655;DHT22;6392;44.644;11.448;2022-12-20T03:13:21;6.20;99.90
12655;DHT22;6392;44.644;11.448;2022-12-20T03:15:48;6.20;99.90
12655;DHT22;6392;44.644;11.448;2022-12-20T03:18:17;6.20;99.90
12655;DHT22;6392;44.644;11.448;2022-12-20T03:20:44;6.30;99.90
12655;DHT22;6392;44.644;11.448;2022-12-20T03:23:11;6.30;99.90
12655;DHT22;6392;44.644;11.448;2022-12-20T03:25:38;6.30;99.90
12655;DHT22;6392;44.644;11.448;2022-12-20T03:28:05;6.20;99.90
12655;DHT22;6392;44.644;11.448;2022-12-20T03:30:32;6.30;99.90
12655;DHT22;6392;44.644;11.448;2022-12-20T03:32:59;6.30;99.90
12655;DHT22;6392;44.644;11.448;2022-12-20T03:35:28;6.30;99.90
12655;DHT22;6392;44.644;11.448;2022-12-20T03:37:55;6.30;99.90
12655;DHT22;6392;44.644;11.448;2022-12-20T03:40:22;6.30;99.90
12655;DHT22;6392;44.644;11.448;2022-12-20T03:42:49;6.30;99.90
12655;DHT22;6392;44.644;11.448;2022-12-20T03:45:16;6.30;99.90
12655;DHT22;6392;44.644;11.448;2022-12-20T03:47:43;6.30;99.90
12655;DHT22;6392;44.644;11.448;2022-12-20T03:50:11;6.30;99.90
12655;DHT22;6392;44.644;11.448;2022-12-20T03:52:39;6.30;99.90
12655;DHT22;6392;44.644;11.448;2022-12-20T03:55:07;6.30;99.90
12655;DHT22;6392;44.644;11.448;2022-12-20T03:57:37;6.30;99.90
12655;DHT22;6392;44.644;11.448;2022-12-20T04:00:05;6.40;99.90
12655;DHT22;6392;44.644;11.448;2022-12-20T04:02:32;6.30;99.90
12655;DHT22;6392;44.644;11.448;2022-12-20T04:04:59;6.30;99.90
12655;DHT22;6392;44.644;11.448;2022-12-20T04:07:26;6.30;99.90
12655;DHT22;6392;44.644;11.448;2022-12-20T04:09:54;6.30;99.90
12655;DHT22;6392;44.644;11.448;2022-12-20T04:12:21;6.30;99.90
12655;DHT22;6392;44.644;11.448;2022-12-20T04:14:48;6.30;99.90
12655;DHT22;6392;44.644;11.448;2022-12-20T04:17:15;6.30;99.90
12655;DHT22;6392;44.644;11.448;2022-12-20T04:19:42;6.30;99.90
12655;DHT22;6392;44.644;11.448;2022-12-20T04:22:10;6.30;99.90
12655;DHT22;6392;44.644;11.448;2022-12-20T04:24:37;6.40;99.90
12655;DHT22;6392;44.644;11.448;2022-12-20T04:27:05;6.40;99.90
12655;DHT22;6392;44.644;11.448;2022-12-20T04:29:32;6.40;99.90
12655;DHT22;6392;44.644;11.448;2022-12-20T04:31:59;6.30;99.90
12655;DHT22;6392;44.644;11.448;2022-12-20T04:34:26;6.30;99.90
12655;DHT22;6392;44.644;11.448;2022-12-20T04:36:53;6.30;99.90
12655;DHT22;6392;44.644;11.448;2022-12-20T04:39:20;6.40;99.90
12655;DHT22;6392;44.644;11.448;2022-12-20T04:41:47;6.30;99.90
12655;DHT22;6392;44.644;11.448;2022-12-20T04:44:16;6.30;99.90
12655;DHT22;6392;44.644;11.448;2022-12-20T04:46:43;6.30;99.90
12655;DHT22;6392;44.644;11.448;2022-12-20T04:49:10;6.30;99.90
12655;DHT22;6392;44.644;11.448;2022-12-20T04:51:37;6.30;99.90
12655;DHT22;6392;44.644;11.448;2022-12-20T04:54:04;6.30;99.90
12655;DHT22;6392;44.644;11.448;2022-12-20T04:56:30;6.30;99.90
12655;DHT22;6392;44.644;11.448;2022-12-20T04:58:58;6.30;99.90
12655;DHT22;6392;44.644;11.448;2022-12-20T05:01:28;6.30;99.90
12655;DHT22;6392;44.644;11.448;2022-12-20T05:03:55;6.30;99.90
12655;DHT22;6392;44.644;11.448;2022-12-20T05:06:22;6.30;99.90
12655;DHT22;6392;44.644;11.448;2022-12-20T05:08:49;6.30;99.90
12655;DHT22;6392;44.644;11.448;2022-12-20T05:11:16;6.40;99.90
12655;DHT22;6392;44.644;11.448;2022-12-20T05:13:43;6.40;99.90
12655;DHT22;6392;44.644;11.448;2022-12-20T05:16:10;6.30;99.90
12655;DHT22;6392;44.644;11.448;2022-12-20T05:18:39;6.30;99.90
12655;DHT22;6392;44.644;11.448;2022-12-20T05:21:06;6.30;99.90
12655;DHT22;6392;44.644;11.448;2022-12-20T05:23:51;6.30;99.90
12655;DHT22;6392;44.644;11.448;2022-12-20T05:26:36;6.30;99.90
12655;DHT22;6392;44.644;11.448;2022-12-20T05:29:04;6.30;99.90
12655;DHT22;6392;44.644;11.448;2022-12-20T05:31:31;6.40;99.90
12655;DHT22;6392;44.644;11.448;2022-12-20T05:34:00;6.40;99.90
12655;DHT22;6392;44.644;11.448;2022-12-20T05:36:27;6.40;99.90
12655;DHT22;6392;44.644;11.448;2022-12-20T05:38:55;6.40;99.90
12655;DHT22;6392;44.644;11.448;2022-12-20T05:41:22;6.40;99.90
12655;DHT22;6392;44.644;11.448;2022-12-20T05:43:49;6.40;99.90
12655;DHT22;6392;44.644;11.448;2022-12-20T05:46:16;6.40;99.90
12655;DHT22;6392;44.644;11.448;2022-12-20T05:48:43;6.40;99.90
12655;DHT22;6392;44.644;11.448;2022-12-20T05:51:12;6.40;99.90
12655;DHT22;6392;44.644;11.448;2022-12-20T05:53:39;6.40;99.90
12655;DHT22;6392;44.644;11.448;2022-12-20T05:56:07;6.40;99.90
12655;DHT22;6392;44.644;11.448;2022-12-20T05:58:34;6.30;99.90
12655;DHT22;6392;44.644;11.448;2022-12-20T06:01:01;6.40;99.90
12655;DHT22;6392;44.644;11.448;2022-12-20T06:03:29;6.40;99.90
12655;DHT22;6392;44.644;11.448;2022-12-20T06:05:56;6.40;99.90
12655;DHT22;6392;44.644;11.448;2022-12-20T06:08:25;6.40;99.90
12655;DHT22;6392;44.644;11.448;2022-12-20T06:10:52;6.40;99.90
12655;DHT22;6392;44.644;11.448;2022-12-20T06:13:19;6.30;99.90
12655;DHT22;6392;44.644;11.448;2022-12-20T06:15:46;6.30;99.90
12655;DHT22;6392;44.644;11.448;2022-12-20T06:18:13;6.30;99.90
12655;DHT22;6392;44.644;11.448;2022-12-20T06:20:40;6.30;99.90
12655;DHT22;6392;44.644;11.448;2022-12-20T06:23:07;6.30;99.90
12655;DHT22;6392;44.644;11.448;2022-12-20T06:25:36;6.30;99.90
12655;DHT22;6392;44.644;11.448;2022-12-20T06:28:04;6.40;99.90
12655;DHT22;6392;44.644;11.448;2022-12-20T06:30:32;6.40;99.90
12655;DHT22;6392;44.644;11.448;2022-12-20T06:33:01;6.40;99.90
12655;DHT22;6392;44.644;11.448;2022-12-20T06:35:28;6.40;99.90
12655;DHT22;6392;44.644;11.448;2022-12-20T06:37:56;6.40;99.90
12655;DHT22;6392;44.644;11.448;2022-12-20T06:40:23;6.40;99.90
12655;DHT22;6392;44.644;11.448;2022-12-20T06:42:51;6.40;99.90
12655;DHT22;6392;44.644;11.448;2022-12-20T06:45:20;6.40;99.90
12655;DHT22;6392;44.644;11.448;2022-12-20T06:47:47;6.40;99.90
12655;DHT22;6392;44.644;11.448;2022-12-20T06:50:14;6.40;99.90
12655;DHT22;6392;44.644;11.448;2022-12-20T06:52:41;6.40;99.90
12655;DHT22;6392;44.644;11.448;2022-12-20T06:55:08;6.40;99.90
12655;DHT22;6392;44.644;11.448;2022-12-20T06:57:35;6.40;99.90
12655;DHT22;6392;44.644;11.448;2022-12-20T07:00:05;6.50;99.90
12655;DHT22;6392;44.644;11.448;2022-12-20T07:02:33;6.50;99.90
12655;DHT22;6392;44.644;11.448;2022-12-20T07:05:00;6.50;99.90
12655;DHT22;6392;44.644;11.448;2022-12-20T07:07:27;6.50;99.90
12655;DHT22;6392;44.644;11.448;2022-12-20T07:09:54;6.60;99.90
12655;DHT22;6392;44.644;11.448;2022-12-20T07:12:21;6.60;99.90
12655;DHT22;6392;44.644;11.448;2022-12-20T07:14:48;6.70;99.90
12655;DHT22;6392;44.644;11.448;2022-12-20T07:17:17;6.80;99.90
12655;DHT22;6392;44.644;11.448;2022-12-20T07:19:44;6.80;99.90
12655;DHT22;6392;44.644;11.448;2022-12-20T07:22:12;6.80;99.90
12655;DHT22;6392;44.644;11.448;2022-12-20T07:24:39;6.90;99.90
12655;DHT22;6392;44.644;11.448;2022-12-20T07:27:06;6.90;99.90
12655;DHT22;6392;44.644;11.448;2022-12-20T07:29:33;6.90;99.90
12655;DHT22;6392;44.644;11.448;2022-12-20T07:32:01;6.90;99.90
12655;DHT22;6392;44.644;11.448;2022-12-20T07:34:29;6.90;99.90
12655;DHT22;6392;44.644;11.448;2022-12-20T07:36:56;6.90;99.90
12655;DHT22;6392;44.644;11.448;2022-12-20T07:39:23;6.90;99.90
12655;DHT22;6392;44.644;11.448;2022-12-20T07:41:53;6.90;99.90
12655;DHT22;6392;44.644;11.448;2022-12-20T07:44:21;7.00;99.90
12655;DHT22;6392;44.644;11.448;2022-12-20T07:46:48;6.90;99.90
12655;DHT22;6392;44.644;11.448;2022-12-20T07:49:15;6.90;99.90
12655;DHT22;6392;44.644;11.448;2022-12-20T07:51:47;6.90;99.90
12655;DHT22;6392;44.644;11.448;2022-12-20T07:54:18;6.90;99.90
12655;DHT22;6392;44.644;11.448;2022-12-20T07:56:48;6.90;99.90
12655;DHT22;6392;44.644;11.448;2022-12-20T07:59:19;6.90;99.90
12655;DHT22;6392;44.644;11.448;2022-12-20T08:01:47;6.90;99.90
12655;DHT22;6392;44.644;11.448;2022-12-20T08:04:17;6.90;99.90
12655;DHT22;6392;44.644;11.448;2022-12-20T08:06:50;6.90;99.90
12655;DHT22;6392;44.644;11.448;2022-12-20T08:09:18;6.90;99.90
12655;DHT22;6392;44.644;11.448;2022-12-20T08:11:47;6.90;99.90
12655;DHT22;6392;44.644;11.448;2022-12-20T08:14:16;6.90;99.90
12655;DHT22;6392;44.644;11.448;2022-12-20T08:16:44;6.90;99.90
12655;DHT22;6392;44.644;11.448;2022-12-20T08:19:11;6.90;99.90
12655;DHT22;6392;44.644;11.448;2022-12-20T08:21:38;6.90;99.90
12655;DHT22;6392;44.644;11.448;2022-12-20T08:24:07;6.90;99.90
12655;DHT22;6392;44.644;11.448;2022-12-20T08:26:37;6.90;99.90
12655;DHT22;6392;44.644;11.448;2022-12-20T08:29:04;6.90;99.90
12655;DHT22;6392;44.644;11.448;2022-12-20T08:31:31;6.90;99.90
12655;DHT22;6392;44.644;11.448;2022-12-20T08:33:58;7.00;99.90
12655;DHT22;6392;44.644;11.448;2022-12-20T08:36:25;7.00;99.90
12655;DHT22;6392;44.644;11.448;2022-12-20T08:38:52;7.00;99.90
12655;DHT22;6392;44.644;11.448;2022-12-20T08:41:20;7.00;99.90
12655;DHT22;6392;44.644;11.448;2022-12-20T08:43:47;7.00;99.90
12655;DHT22;6392;44.644;11.448;2022-12-20T08:46:14;7.00;99.90
12655;DHT22;6392;44.644;11.448;2022-12-20T08:48:41;7.00;99.90
12655;DHT22;6392;44.644;11.448;2022-12-20T08:51:09;7.00;99.90
12655;DHT22;6392;44.644;11.448;2022-12-20T08:53:37;7.00;99.90
12655;DHT22;6392;44.644;11.448;2022-12-20T08:56:06;7.00;99.90
12655;DHT22;6392;44.644;11.448;2022-12-20T08:58:35;7.10;99.90
12655;DHT22;6392;44.644;11.448;2022-12-20T09:01:04;7.10;99.90
12655;DHT22;6392;44.644;11.448;2022-12-20T09:03:32;7.10;99.90
12655;DHT22;6392;44.644;11.448;2022-12-20T09:06:00;7.20;99.90
12655;DHT22;6392;44.644;11.448;2022-12-20T09:08:27;7.20;99.90
12655;DHT22;6392;44.644;11.448;2022-12-20T09:11:03;7.10;99.90
12655;DHT22;6392;44.644;11.448;2022-12-20T09:13:30;7.10;99.90
12655;DHT22;6392;44.644;11.448;2022-12-20T09:16:00;7.20;99.90
12655;DHT22;6392;44.644;11.448;2022-12-20T09:18:27;7.10;99.90
12655;DHT22;6392;44.644;11.448;2022-12-20T09:20:54;7.10;99.90
12655;DHT22;6392;44.644;11.448;2022-12-20T09:23:21;7.10;99.90
12655;DHT22;6392;44.644;11.448;2022-12-20T09:25:48;7.20;99.90
12655;DHT22;6392;44.644;11.448;2022-12-20T09:28:15;7.20;99.90
12655;DHT22;6392;44.644;11.448;2022-12-20T09:30:42;7.20;99.90
12655;DHT22;6392;44.644;11.448;2022-12-20T09:33:11;7.20;99.90
12655;DHT22;6392;44.644;11.448;2022-12-20T09:35:43;7.20;99.90
12655;DHT22;6392;44.644;11.448;2022-12-20T09:38:11;7.20;99.90
12655;DHT22;6392;44.644;11.448;2022-12-20T09:40:44;7.20;99.90
12655;DHT22;6392;44.644;11.448;2022-12-20T09:43:14;7.30;99.90
12655;DHT22;6392;44.644;11.448;2022-12-20T09:45:42;7.30;99.90
12655;DHT22;6392;44.644;11.448;2022-12-20T09:48:16;7.30;99.90
12655;DHT22;6392;44.644;11.448;2022-12-20T09:50:49;7.30;99.90
12655;DHT22;6392;44.644;11.448;2022-12-20T09:53:27;7.40;99.90
12655;DHT22;6392;44.644;11.448;2022-12-20T09:56:06;7.40;99.90
12655;DHT22;6392;44.644;11.448;2022-12-20T09:58:45;7.40;99.90
12655;DHT22;6392;44.644;11.448;2022-12-20T10:01:20;7.40;99.90
12655;DHT22;6392;44.644;11.448;2022-12-20T10:03:50;7.40;99.90
12655;DHT22;6392;44.644;11.448;2022-12-20T10:06:24;7.40;99.90
12655;DHT22;6392;44.644;11.448;2022-12-20T10:08:56;7.40;99.90
12655;DHT22;6392;44.644;11.448;2022-12-20T10:11:52;7.50;99.90
12655;DHT22;6392;44.644;11.448;2022-12-20T10:14:36;7.60;99.90
12655;DHT22;6392;44.644;11.448;2022-12-20T10:17:11;7.60;99.90
12655;DHT22;6392;44.644;11.448;2022-12-20T10:20:02;7.70;99.90
12655;DHT22;6392;44.644;11.448;2022-12-20T10:22:37;7.70;99.90
12655;DHT22;6392;44.644;11.448;2022-12-20T10:25:15;7.70;99.90
12655;DHT22;6392;44.644;11.448;2022-12-20T10:27:44;7.80;99.90
12655;DHT22;6392;44.644;11.448;2022-12-20T10:30:13;7.80;99.90
12655;DHT22;6392;44.644;11.448;2022-12-20T10:32:44;7.80;99.90
12655;DHT22;6392;44.644;11.448;2022-12-20T10:35:22;7.70;99.90
12655;DHT22;6392;44.644;11.448;2022-12-20T10:38:00;7.80;99.90
12655;DHT22;6392;44.644;11.448;2022-12-20T10:40:31;7.80;99.90
12655;DHT22;6392;44.644;11.448;2022-12-20T10:42:59;7.80;99.90
12655;DHT22;6392;44.644;11.448;2022-12-20T10:45:34;7.80;99.90
12655;DHT22;6392;44.644;11.448;2022-12-20T10:48:04;7.80;99.90
12655;DHT22;6392;44.644;11.448;2022-12-20T10:50:33;7.90;99.90
12655;DHT22;6392;44.644;11.448;2022-12-20T10:53:20;8.00;99.90
12655;DHT22;6392;44.644;11.448;2022-12-20T10:55:47;8.00;99.90
12655;DHT22;6392;44.644;11.448;2022-12-20T10:58:16;8.00;99.90
12655;DHT22;6392;44.644;11.448;2022-12-20T11:00:44;8.00;99.90
12655;DHT22;6392;44.644;11.448;2022-12-20T11:03:14;8.00;99.90
12655;DHT22;6392;44.644;11.448;2022-12-20T11:05:54;8.10;99.90
12655;DHT22;6392;44.644;11.448;2022-12-20T11:08:23;8.10;99.90
12655;DHT22;6392;44.644;11.448;2022-12-20T11:11:10;8.10;99.90
12655;DHT22;6392;44.644;11.448;2022-12-20T11:13:38;8.10;99.90
12655;DHT22;6392;44.644;11.448;2022-12-20T11:16:33;8.10;99.90
12655;DHT22;6392;44.644;11.448;2022-12-20T11:19:38;8.20;99.90
12655;DHT22;6392;44.644;11.448;2022-12-20T11:22:19;8.20;99.90
12655;DHT22;6392;44.644;11.448;2022-12-20T11:24:56;8.20;99.90
12655;DHT22;6392;44.644;11.448;2022-12-20T11:27:31;8.20;99.90
12655;DHT22;6392;44.644;11.448;2022-12-20T11:30:07;8.20;99.90
12655;DHT22;6392;44.644;11.448;2022-12-20T11:32:56;8.20;99.90
12655;DHT22;6392;44.644;11.448;2022-12-20T11:35:31;8.20;99.90
12655;DHT22;6392;44.644;11.448;2022-12-20T11:38:11;8.20;99.90
12655;DHT22;6392;44.644;11.448;2022-12-20T11:40:45;8.20;99.90
12655;DHT22;6392;44.644;11.448;2022-12-20T11:43:25;8.20;99.90
12655;DHT22;6392;44.644;11.448;2022-12-20T11:46:05;8.20;99.90
12655;DHT22;6392;44.644;11.448;2022-12-20T11:48:47;8.20;99.90
12655;DHT22;6392;44.644;11.448;2022-12-20T11:51:22;8.20;99.90
12655;DHT22;6392;44.644;11.448;2022-12-20T11:53:55;8.30;99.90
12655;DHT22;6392;44.644;11.448;2022-12-20T11:56:36;8.20;99.90
12655;DHT22;6392;44.644;11.448;2022-12-20T11:59:06;8.30;99.90
12655;DHT22;6392;44.644;11.448;2022-12-20T12:01:41;8.30;99.90
12655;DHT22;6392;44.644;11.448;2022-12-20T12:04:13;8.30;99.90
12655;DHT22;6392;44.644;11.448;2022-12-20T12:06:44;8.30;99.90
12655;DHT22;6392;44.644;11.448;2022-12-20T12:09:22;8.40;99.90
12655;DHT22;6392;44.644;11.448;2022-12-20T12:11:53;8.40;99.90
12655;DHT22;6392;44.644;11.448;2022-12-20T12:14:29;8.40;99.90
12655;DHT22;6392;44.644;11.448;2022-12-20T12:17:01;8.40;99.90
12655;DHT22;6392;44.644;11.448;2022-12-20T12:19:34;8.40;99.90
12655;DHT22;6392;44.644;11.448;2022-12-20T12:22:05;8.40;99.90
12655;DHT22;6392;44.644;11.448;2022-12-20T12:24:39;8.40;99.90
12655;DHT22;6392;44.644;11.448;2022-12-20T12:27:22;8.40;99.90
12655;DHT22;6392;44.644;11.448;2022-12-20T12:29:50;8.40;99.90
12655;DHT22;6392;44.644;11.448;2022-12-20T12:32:24;8.40;99.90
12655;DHT22;6392;44.644;11.448;2022-12-20T12:35:04;8.40;99.90
12655;DHT22;6392;44.644;11.448;2022-12-20T12:37:47;8.40;99.90
12655;DHT22;6392;44.644;11.448;2022-12-20T12:43:46;8.40;99.90
12655;DHT22;6392;44.644;11.448;2022-12-20T12:46:17;8.40;99.90
12655;DHT22;6392;44.644;11.448;2022-12-20T12:48:50;8.40;99.90
12655;DHT22;6392;44.644;11.448;2022-12-20T12:51:24;8.50;99.90
12655;DHT22;6392;44.644;11.448;2022-12-20T12:53:53;8.50;99.90
12655;DHT22;6392;44.644;11.448;2022-12-20T12:56:39;8.50;99.90
12655;DHT22;6392;44.644;11.448;2022-12-20T12:59:40;8.50;99.90
12655;DHT22;6392;44.644;11.448;2022-12-20T13:05:33;8.50;99.90
12655;DHT22;6392;44.644;11.448;2022-12-20T13:08:01;8.50;99.90
12655;DHT22;6392;44.644;11.448;2022-12-20T13:10:55;8.50;99.90
12655;DHT22;6392;44.644;11.448;2022-12-20T13:13:23;8.50;99.90
12655;DHT22;6392;44.644;11.448;2022-12-20T13:16:04;8.50;99.90
12655;DHT22;6392;44.644;11.448;2022-12-20T13:18:32;8.50;99.90
12655;DHT22;6392;44.644;11.448;2022-12-20T13:21:31;8.60;99.90
12655;DHT22;6392;44.644;11.448;2022-12-20T13:24:35;8.60;99.90
12655;DHT22;6392;44.644;11.448;2022-12-20T13:30:00;8.60;99.90
12655;DHT22;6392;44.644;11.448;2022-12-20T13:35:55;8.60;99.90
12655;DHT22;6392;44.644;11.448;2022-12-20T13:38:50;8.60;99.90
12655;DHT22;6392;44.644;11.448;2022-12-20T13:41:31;8.60;99.90
12655;DHT22;6392;44.644;11.448;2022-12-20T13:44:08;8.60;99.90
12655;DHT22;6392;44.644;11.448;2022-12-20T13:46:42;8.60;99.90
12655;DHT22;6392;44.644;11.448;2022-12-20T13:49:20;8.70;99.90
12655;DHT22;6392;44.644;11.448;2022-12-20T13:52:06;8.80;99.90
12655;DHT22;6392;44.644;11.448;2022-12-20T13:54:40;8.70;99.90
12655;DHT22;6392;44.644;11.448;2022-12-20T13:57:10;8.70;99.90
12655;DHT22;6392;44.644;11.448;2022-12-20T13:59:44;8.70;99.90
12655;DHT22;6392;44.644;11.448;2022-12-20T14:02:18;8.70;99.90
12655;DHT22;6392;44.644;11.448;2022-12-20T14:04:57;8.70;99.90
12655;DHT22;6392;44.644;11.448;2022-12-20T14:07:27;8.70;99.90
12655;DHT22;6392;44.644;11.448;2022-12-20T14:09:57;8.70;99.90
12655;DHT22;6392;44.644;11.448;2022-12-20T14:12:25;8.60;99.90
12655;DHT22;6392;44.644;11.448;2022-12-20T14:14:54;8.60;99.90
12655;DHT22;6392;44.644;11.448;2022-12-20T14:17:24;8.60;99.90
12655;DHT22;6392;44.644;11.448;2022-12-20T14:20:06;8.60;99.90
12655;DHT22;6392;44.644;11.448;2022-12-20T14:22:41;8.60;99.90
12655;DHT22;6392;44.644;11.448;2022-12-20T14:25:15;8.60;99.90
12655;DHT22;6392;44.644;11.448;2022-12-20T14:27:43;8.60;99.90
12655;DHT22;6392;44.644;11.448;2022-12-20T14:30:29;8.60;99.90
12655;DHT22;6392;44.644;11.448;2022-12-20T14:32:57;8.70;99.90
12655;DHT22;6392;44.644;11.448;2022-12-20T14:35:25;8.60;99.90
12655;DHT22;6392;44.644;11.448;2022-12-20T14:37:56;8.60;99.90
12655;DHT22;6392;44.644;11.448;2022-12-20T14:40:26;8.60;99.90
12655;DHT22;6392;44.644;11.448;2022-12-20T14:42:53;8.60;99.90
12655;DHT22;6392;44.644;11.448;2022-12-20T14:45:23;8.60;99.90
12655;DHT22;6392;44.644;11.448;2022-12-20T14:47:58;8.60;99.90
12655;DHT22;6392;44.644;11.448;2022-12-20T14:50:29;8.60;99.90
12655;DHT22;6392;44.644;11.448;2022-12-20T14:52:59;8.60;99.90
12655;DHT22;6392;44.644;11.448;2022-12-20T14:55:31;8.60;99.90
12655;DHT22;6392;44.644;11.448;2022-12-20T14:57:59;8.60;99.90
12655;DHT22;6392;44.644;11.448;2022-12-20T15:00:28;8.60;99.90
12655;DHT22;6392;44.644;11.448;2022-12-20T15:03:10;8.70;99.90
12655;DHT22;6392;44.644;11.448;2022-12-20T15:05:48;8.70;99.90
12655;DHT22;6392;44.644;11.448;2022-12-20T15:08:19;8.60;99.90
12655;DHT22;6392;44.644;11.448;2022-12-20T15:10:53;8.60;99.90
12655;DHT22;6392;44.644;11.448;2022-12-20T15:13:23;8.60;99.90
12655;DHT22;6392;44.644;11.448;2022-12-20T15:15:51;8.60;99.90
12655;DHT22;6392;44.644;11.448;2022-12-20T15:18:20;8.60;99.90
12655;DHT22;6392;44.644;11.448;2022-12-20T15:20:49;8.60;99.90
12655;DHT22;6392;44.644;11.448;2022-12-20T15:23:21;8.50;99.90
12655;DHT22;6392;44.644;11.448;2022-12-20T15:25:48;8.50;99.90
12655;DHT22;6392;44.644;11.448;2022-12-20T15:28:18;8.50;99.90
12655;DHT22;6392;44.644;11.448;2022-12-20T15:30:46;8.60;99.90
12655;DHT22;6392;44.644;11.448;2022-12-20T15:33:18;8.50;99.90
12655;DHT22;6392;44.644;11.448;2022-12-20T15:35:46;8.60;99.90
12655;DHT22;6392;44.644;11.448;2022-12-20T15:38:14;8.50;99.90
12655;DHT22;6392;44.644;11.448;2022-12-20T15:40:47;8.60;99.90
12655;DHT22;6392;44.644;11.448;2022-12-20T15:43:17;8.50;99.90
12655;DHT22;6392;44.644;11.448;2022-12-20T15:45:46;8.50;99.90
12655;DHT22;6392;44.644;11.448;2022-12-20T15:48:15;8.50;99.90
12655;DHT22;6392;44.644;11.448;2022-12-20T15:50:47;8.50;99.90
12655;DHT22;6392;44.644;11.448;2022-12-20T15:53:16;8.50;99.90
12655;DHT22;6392;44.644;11.448;2022-12-20T15:55:49;8.50;99.90
12655;DHT22;6392;44.644;11.448;2022-12-20T15:58:16;8.60;99.90
12655;DHT22;6392;44.644;11.448;2022-12-20T16:00:44;8.50;99.90
12655;DHT22;6392;44.644;11.448;2022-12-20T16:03:16;8.50;99.90
12655;DHT22;6392;44.644;11.448;2022-12-20T16:05:44;8.50;99.90
12655;DHT22;6392;44.644;11.448;2022-12-20T16:08:11;8.50;99.90
12655;DHT22;6392;44.644;11.448;2022-12-20T16:10:38;8.50;99.90
12655;DHT22;6392;44.644;11.448;2022-12-20T16:13:12;8.50;99.90
12655;DHT22;6392;44.644;11.448;2022-12-20T16:15:39;8.50;99.90
12655;DHT22;6392;44.644;11.448;2022-12-20T16:18:06;8.50;99.90
12655;DHT22;6392;44.644;11.448;2022-12-20T16:20:33;8.50;99.90
12655;DHT22;6392;44.644;11.448;2022-12-20T16:23:01;8.50;99.90